Time;durP1;ratioP1;P1;durP2;ratioP2;P2;SDS_P1;SDS_P2;PMS_P1;PMS_P2;Temp;Humidity;BMP_temperature;BMP_pressure;BME280_temperature;BME280_humidity;BME280_pressure;Samples;Min_cycle;Max_cycle;Signal;HPM_P1;HPM_P2
2023/12/20 00:00:05;;;;;;;1.40;0.63;;;5.90;99.90;;;;;;4932886;29;20254;-58
2023/12/20 00:02:31;;;;;;;2.10;0.70;;;5.90;99.90;;;;;;4934003;29;20214;-57
2023/12/20 00:04:56;;;;;;;1.33;0.63;;;6.00;99.90;;;;;;4934150;29;20668;-57
2023/12/20 00:07:22;;;;;;;2.97;0.70;;;5.90;99.90;;;;;;4933684;29;20179;-56
2023/12/20 00:09:47;;;;;;;0.60;0.47;;;5.90;99.90;;;;;;4933210;29;20203;-57
2023/12/20 00:12:13;;;;;;;0.90;0.50;;;5.90;99.90;;;;;;4933699;29;20198;-58
2023/12/20 00:14:38;;;;;;;1.27;0.70;;;6.00;99.90;;;;;;4934016;29;20194;-59
2023/12/20 00:17:04;;;;;;;0.63;0.53;;;6.00;99.90;;;;;;4933637;29;20229;-56
2023/12/20 00:19:30;;;;;;;0.73;0.67;;;6.00;99.90;;;;;;4933309;29;20220;-59
2023/12/20 00:21:55;;;;;;;1.30;0.70;;;6.10;99.90;;;;;;4934559;29;20262;-56
2023/12/20 00:24:21;;;;;;;2.03;0.70;;;6.10;99.90;;;;;;4933634;29;20206;-58
2023/12/20 00:26:46;;;;;;;3.13;0.80;;;6.00;99.90;;;;;;4934028;29;20194;-54
2023/12/20 00:29:12;;;;;;;1.47;0.70;;;6.00;99.90;;;;;;4932902;29;20187;-54
2023/12/20 00:31:37;;;;;;;0.93;0.67;;;6.00;99.90;;;;;;4934119;29;20188;-54
2023/12/20 00:34:03;;;;;;;0.73;0.50;;;6.00;99.90;;;;;;4934631;29;20187;-55
2023/12/20 00:36:29;;;;;;;2.50;0.57;;;6.00;99.90;;;;;;4933907;29;20186;-57
2023/12/20 00:38:54;;;;;;;1.10;0.60;;;6.00;99.90;;;;;;4933625;29;20195;-56
2023/12/20 00:41:20;;;;;;;0.70;0.60;;;6.00;99.90;;;;;;4934495;29;20209;-57
2023/12/20 00:43:45;;;;;;;1.33;0.70;;;6.00;99.90;;;;;;4934147;29;20550;-57
2023/12/20 00:46:11;;;;;;;1.00;0.67;;;6.00;99.90;;;;;;4933012;29;20219;-58
2023/12/20 00:48:36;;;;;;;1.63;0.60;;;6.00;99.90;;;;;;4932662;29;20211;-58
2023/12/20 00:51:02;;;;;;;0.90;0.60;;;6.00;99.90;;;;;;4932980;29;20211;-56
2023/12/20 00:53:28;;;;;;;1.20;0.70;;;6.00;99.90;;;;;;4933357;29;20194;-57
2023/12/20 00:55:53;;;;;;;0.70;0.50;;;6.00;99.90;;;;;;4933185;29;20198;-57
2023/12/20 00:58:19;;;;;;;0.93;0.53;;;6.10;99.90;;;;;;4933004;29;20214;-55
2023/12/20 01:00:45;;;;;;;3.40;0.60;;;6.00;99.90;;;;;;4932001;29;20234;-57
2023/12/20 01:03:10;;;;;;;0.73;0.70;;;6.10;99.90;;;;;;4932956;29;20580;-54
2023/12/20 01:05:36;;;;;;;3.70;0.70;;;6.10;99.90;;;;;;4933044;29;20187;-56
2023/12/20 01:08:02;;;;;;;1.23;0.80;;;6.10;99.90;;;;;;4932907;29;20191;-53
2023/12/20 01:10:29;;;;;;;1.03;0.70;;;6.10;99.90;;;;;;4932485;29;20207;-59
2023/12/20 01:12:55;;;;;;;0.73;0.67;;;6.10;99.90;;;;;;4933069;29;20657;-57
2023/12/20 01:15:20;;;;;;;1.83;0.70;;;6.10;99.90;;;;;;4932657;29;20207;-56
2023/12/20 01:17:46;;;;;;;4.13;0.70;;;6.20;99.90;;;;;;4933153;29;20191;-57
2023/12/20 01:20:12;;;;;;;2.83;1.00;;;6.20;99.90;;;;;;4932096;29;20218;-59
2023/12/20 01:22:38;;;;;;;2.90;1.50;;;6.30;99.90;;;;;;4933035;29;20214;-58
2023/12/20 01:25:03;;;;;;;3.40;1.63;;;6.30;99.90;;;;;;4934292;29;20187;-58
2023/12/20 01:27:30;;;;;;;1.73;1.10;;;6.30;99.90;;;;;;4936951;29;20186;-58
2023/12/20 01:29:56;;;;;;;3.03;1.53;;;6.30;99.90;;;;;;4936018;29;20210;-59
2023/12/20 01:32:22;;;;;;;3.63;2.10;;;6.30;99.90;;;;;;4936564;29;20198;-57
2023/12/20 01:34:48;;;;;;;5.03;2.33;;;6.30;99.90;;;;;;4936716;29;20196;-56
2023/12/20 01:37:14;;;;;;;3.03;1.80;;;6.30;99.90;;;;;;4936718;29;20698;-58
2023/12/20 01:39:39;;;;;;;3.10;1.20;;;6.20;99.90;;;;;;4936230;29;20215;-59
2023/12/20 01:42:05;;;;;;;4.23;1.20;;;6.20;99.90;;;;;;4936484;29;20225;-59
2023/12/20 01:44:30;;;;;;;4.57;1.07;;;6.20;99.90;;;;;;4936493;29;20183;-58
2023/12/20 01:46:57;;;;;;;2.50;0.93;;;6.20;99.90;;;;;;4936661;29;20266;-57
2023/12/20 01:49:23;;;;;;;4.17;0.80;;;6.30;99.90;;;;;;4934639;29;20305;-58
2023/12/20 01:51:49;;;;;;;1.60;0.83;;;6.30;99.90;;;;;;4936406;29;20736;-57
2023/12/20 01:54:15;;;;;;;1.20;0.73;;;6.30;99.90;;;;;;4936199;29;20183;-57
2023/12/20 01:56:41;;;;;;;1.40;0.70;;;6.30;99.90;;;;;;4936395;29;20672;-57
2023/12/20 01:59:08;;;;;;;2.00;0.90;;;6.30;99.90;;;;;;4935433;29;20250;-54
2023/12/20 02:01:35;;;;;;;1.13;0.63;;;6.30;99.90;;;;;;4936039;29;20681;-57
2023/12/20 02:04:01;;;;;;;2.83;0.67;;;6.30;99.90;;;;;;4935930;29;20688;-55
2023/12/20 02:06:31;;;;;;;0.83;0.67;;;6.30;99.90;;;;;;4936450;29;20179;-57
2023/12/20 02:08:57;;;;;;;1.33;0.67;;;6.30;99.90;;;;;;4935841;29;20538;-58
2023/12/20 02:11:24;;;;;;;3.60;1.00;;;6.30;99.90;;;;;;4934591;29;20339;-53
2023/12/20 02:13:50;;;;;;;2.40;0.93;;;6.30;99.90;;;;;;4936059;29;20195;-56
2023/12/20 02:16:16;;;;;;;3.10;1.00;;;6.30;99.90;;;;;;4935776;29;20201;-57
2023/12/20 02:18:43;;;;;;;2.17;0.90;;;6.30;99.90;;;;;;4935472;29;20724;-58
2023/12/20 02:21:09;;;;;;;1.23;0.50;;;6.40;99.90;;;;;;4935997;29;20211;-56
2023/12/20 02:23:35;;;;;;;0.80;0.40;;;6.40;99.90;;;;;;4935829;29;20234;-57
2023/12/20 02:26:01;;;;;;;1.80;0.50;;;6.40;99.90;;;;;;4918722;29;20261;-57
2023/12/20 02:28:27;;;;;;;1.30;0.30;;;6.30;99.90;;;;;;4935577;29;20183;-58
2023/12/20 02:30:53;;;;;;;0.30;0.30;;;6.30;99.90;;;;;;4935065;29;20699;-55
2023/12/20 02:33:18;;;;;;;3.10;0.40;;;6.40;99.90;;;;;;4935500;29;20282;-55
2023/12/20 02:35:44;;;;;;;1.37;0.50;;;6.40;99.90;;;;;;4935233;29;20616;-54
2023/12/20 02:38:09;;;;;;;4.10;0.60;;;6.40;99.90;;;;;;4934887;29;20207;-57
2023/12/20 02:40:35;;;;;;;1.50;0.97;;;6.30;99.90;;;;;;4934970;29;20210;-56
2023/12/20 02:43:00;;;;;;;2.93;1.30;;;6.30;99.90;;;;;;4935462;29;20223;-54
2023/12/20 02:45:27;;;;;;;4.27;1.37;;;6.30;99.90;;;;;;4935177;29;20179;-56
2023/12/20 02:47:52;;;;;;;6.17;1.80;;;6.30;99.90;;;;;;4935409;29;20561;-56
2023/12/20 02:50:18;;;;;;;7.93;2.20;;;6.20;99.90;;;;;;4934414;29;20207;-55
2023/12/20 02:52:45;;;;;;;11.53;2.10;;;6.20;99.90;;;;;;4935341;29;20194;-57
2023/12/20 02:55:11;;;;;;;11.07;2.33;;;6.10;99.90;;;;;;4935583;29;20238;-56
2023/12/20 02:57:41;;;;;;;9.43;2.10;;;6.00;99.90;;;;;;4935124;29;20191;-56
2023/12/20 03:00:10;;;;;;;7.10;2.03;;;6.00;99.90;;;;;;4934102;29;20295;-56
2023/12/20 03:02:36;;;;;;;4.80;1.87;;;5.90;99.90;;;;;;4935302;29;20219;-55
2023/12/20 03:05:02;;;;;;;3.87;1.87;;;5.80;99.90;;;;;;4935277;29;20357;-54
2023/12/20 03:07:28;;;;;;;4.43;1.70;;;5.80;99.90;;;;;;4935174;29;20654;-56
2023/12/20 03:09:54;;;;;;;6.23;2.30;;;5.80;99.90;;;;;;4934467;29;20243;-56
2023/12/20 03:12:19;;;;;;;3.93;1.97;;;5.80;99.90;;;;;;4934799;29;20246;-56
2023/12/20 03:14:45;;;;;;;6.37;1.80;;;5.80;99.90;;;;;;4934847;29;20240;-58
2023/12/20 03:17:10;;;;;;;3.10;1.80;;;5.70;99.90;;;;;;4934846;29;20195;-59
2023/12/20 03:19:36;;;;;;;8.70;1.80;;;5.70;99.90;;;;;;4934372;29;20707;-56
2023/12/20 03:22:02;;;;;;;7.40;2.23;;;5.70;99.90;;;;;;4934647;29;20214;-58
2023/12/20 03:24:27;;;;;;;6.20;2.10;;;5.70;99.90;;;;;;4934718;29;20720;-57
2023/12/20 03:26:53;;;;;;;9.23;2.10;;;5.80;99.90;;;;;;4934719;29;20523;-59
2023/12/20 03:29:19;;;;;;;7.13;2.60;;;5.80;99.90;;;;;;4933662;29;20194;-58
2023/12/20 03:31:45;;;;;;;7.07;2.40;;;5.70;99.90;;;;;;4934929;29;20187;-57
2023/12/20 03:34:11;;;;;;;3.97;2.50;;;5.70;99.90;;;;;;4934712;29;20559;-56
2023/12/20 03:36:36;;;;;;;8.20;2.70;;;5.70;99.90;;;;;;4934500;29;20274;-59
2023/12/20 03:39:02;;;;;;;8.43;2.50;;;5.60;99.90;;;;;;4933658;29;20219;-56
2023/12/20 03:41:28;;;;;;;8.13;2.50;;;5.60;99.90;;;;;;4926793;29;20182;-56
2023/12/20 03:43:54;;;;;;;5.13;2.60;;;5.60;99.90;;;;;;4934499;29;20213;-59
2023/12/20 03:46:19;;;;;;;12.17;3.13;;;5.60;99.90;;;;;;4934163;29;20298;-57
2023/12/20 03:48:45;;;;;;;8.07;2.93;;;5.50;99.90;;;;;;4933434;29;20198;-56
2023/12/20 03:51:10;;;;;;;11.37;3.10;;;5.50;99.90;;;;;;4934160;29;20218;-57
2023/12/20 03:53:36;;;;;;;8.10;3.23;;;5.50;99.90;;;;;;4934348;29;20191;-58
2023/12/20 03:56:01;;;;;;;6.10;2.83;;;5.40;99.90;;;;;;4934620;29;20660;-56
2023/12/20 03:58:27;;;;;;;7.73;2.83;;;5.40;99.90;;;;;;4933966;29;20190;-57
2023/12/20 04:00:53;;;;;;;12.70;2.87;;;5.30;99.90;;;;;;4933303;29;20238;-58
2023/12/20 04:03:18;;;;;;;5.90;2.77;;;5.20;99.90;;;;;;4934139;29;20306;-56
2023/12/20 04:05:44;;;;;;;4.90;2.40;;;5.10;99.90;;;;;;4934213;29;20215;-57
2023/12/20 04:08:09;;;;;;;8.03;3.07;;;5.10;99.90;;;;;;4934048;29;20287;-58
2023/12/20 04:10:35;;;;;;;11.33;3.27;;;5.00;99.90;;;;;;4933177;29;20243;-59
2023/12/20 04:13:00;;;;;;;7.43;3.20;;;4.80;99.90;;;;;;4933799;29;20187;-57
2023/12/20 04:15:26;;;;;;;10.63;4.03;;;4.80;99.90;;;;;;4933473;29;20661;-58
2023/12/20 04:17:52;;;;;;;16.67;4.80;;;4.70;99.90;;;;;;4933938;29;20618;-55
2023/12/20 04:20:17;;;;;;;10.00;5.00;;;4.70;99.90;;;;;;4931815;29;20283;-59
2023/12/20 04:22:43;;;;;;;16.60;5.33;;;4.80;99.90;;;;;;4933782;29;20680;-59
2023/12/20 04:25:09;;;;;;;17.60;5.73;;;4.80;99.90;;;;;;4933454;29;20661;-58
2023/12/20 04:27:35;;;;;;;14.93;5.77;;;4.80;99.90;;;;;;4933693;29;20191;-57
2023/12/20 04:30:00;;;;;;;12.63;5.20;;;4.90;99.90;;;;;;4932820;29;20600;-57
2023/12/20 04:32:26;;;;;;;16.53;5.70;;;4.90;99.90;;;;;;4933830;29;20183;-56
2023/12/20 04:34:51;;;;;;;16.10;5.00;;;4.80;99.90;;;;;;4933687;29;20187;-59
2023/12/20 04:37:17;;;;;;;17.33;5.00;;;4.90;99.90;;;;;;4933412;29;20197;-59
2023/12/20 04:39:43;;;;;;;12.80;5.00;;;4.90;99.90;;;;;;4932893;29;20214;-59
2023/12/20 04:42:08;;;;;;;14.60;5.00;;;5.00;99.90;;;;;;4933216;29;20290;-55
2023/12/20 04:44:34;;;;;;;8.17;4.37;;;5.00;99.90;;;;;;4933384;29;20668;-59
2023/12/20 04:47:00;;;;;;;12.47;4.67;;;5.00;99.90;;;;;;4933768;29;20183;-51
2023/12/20 04:49:25;;;;;;;15.67;4.43;;;4.90;99.90;;;;;;4932859;29;20218;-56
2023/12/20 04:51:51;;;;;;;11.13;4.47;;;4.90;99.90;;;;;;4933523;29;20193;-57
2023/12/20 04:54:16;;;;;;;15.33;5.10;;;4.90;99.90;;;;;;4933036;29;20664;-52
2023/12/20 04:56:42;;;;;;;18.53;4.60;;;5.00;99.90;;;;;;4932896;29;20273;-55
2023/12/20 04:59:08;;;;;;;15.63;4.30;;;5.10;99.90;;;;;;4931127;29;20191;-53
2023/12/20 05:01:33;;;;;;;11.47;4.13;;;5.00;99.90;;;;;;4933369;29;20633;-53
2023/12/20 05:03:59;;;;;;;9.73;4.60;;;5.00;99.90;;;;;;4933294;29;20187;-52
2023/12/20 05:06:24;;;;;;;10.43;3.60;;;5.00;99.90;;;;;;4933120;29;20179;-57
2023/12/20 05:08:50;;;;;;;13.57;3.60;;;5.10;99.90;;;;;;4932695;29;20230;-59
2023/12/20 05:11:15;;;;;;;13.90;3.60;;;5.10;99.90;;;;;;4932934;29;20207;-54
2023/12/20 05:13:42;;;;;;;12.43;3.80;;;5.00;99.90;;;;;;4933231;29;20194;-54
2023/12/20 05:16:08;;;;;;;17.53;3.70;;;5.00;99.90;;;;;;4932764;29;20183;-58
2023/12/20 05:18:34;;;;;;;16.10;3.17;;;5.00;99.90;;;;;;4932900;29;20202;-55
2023/12/20 05:21:00;;;;;;;12.10;3.13;;;5.00;99.90;;;;;;4933324;29;20210;-54
2023/12/20 05:23:25;;;;;;;8.63;2.93;;;5.00;99.90;;;;;;4932764;29;20218;-54
2023/12/20 05:25:51;;;;;;;9.83;3.17;;;5.00;99.90;;;;;;4932951;29;20190;-53
2023/12/20 05:28:17;;;;;;;12.33;3.60;;;5.00;99.90;;;;;;4933107;29;20192;-57
2023/12/20 05:30:43;;;;;;;8.63;3.40;;;5.00;99.90;;;;;;4932189;29;20211;-59
2023/12/20 05:33:09;;;;;;;8.33;3.20;;;5.10;99.90;;;;;;4932926;29;20539;-59
2023/12/20 05:35:34;;;;;;;13.43;4.77;;;5.10;99.90;;;;;;4933148;29;20683;-57
2023/12/20 05:38:00;;;;;;;12.63;3.77;;;5.10;99.90;;;;;;4933076;29;20201;-60
2023/12/20 05:40:26;;;;;;;12.67;3.37;;;5.00;99.90;;;;;;4932120;29;20207;-57
2023/12/20 05:42:51;;;;;;;14.33;3.63;;;5.00;99.90;;;;;;4932860;29;20207;-56
2023/12/20 05:45:17;;;;;;;15.70;3.53;;;5.10;99.90;;;;;;4932720;29;20199;-58
2023/12/20 05:47:42;;;;;;;10.43;3.20;;;5.10;99.90;;;;;;4931544;29;20187;-58
2023/12/20 05:50:08;;;;;;;15.00;4.00;;;5.00;99.90;;;;;;4932175;29;20225;-60
2023/12/20 05:52:34;;;;;;;20.70;3.60;;;5.00;99.90;;;;;;4932974;29;20195;-59
2023/12/20 05:55:01;;;;;;;7.70;3.27;;;5.00;99.90;;;;;;4932798;29;20234;-56
2023/12/20 05:57:27;;;;;;;13.43;3.90;;;5.00;99.90;;;;;;4933079;29;20571;-57
2023/12/20 05:59:52;;;;;;;16.83;3.63;;;5.10;99.90;;;;;;4931816;29;20219;-55
2023/12/20 06:02:18;;;;;;;8.40;3.37;;;5.10;99.90;;;;;;4931233;29;20199;-57
2023/12/20 06:04:44;;;;;;;13.87;3.87;;;5.00;99.90;;;;;;4932461;29;20202;-57
2023/12/20 06:07:13;;;;;;;16.57;3.80;;;5.10;99.90;;;;;;4932142;29;20777;-58
2023/12/20 06:09:39;;;;;;;9.70;3.17;;;5.10;99.90;;;;;;4931457;29;20207;-58
2023/12/20 06:12:05;;;;;;;10.33;2.70;;;5.10;99.90;;;;;;4934640;29;20195;-57
2023/12/20 06:14:30;;;;;;;12.80;2.90;;;5.10;99.90;;;;;;4928355;29;20191;-56
2023/12/20 06:16:57;;;;;;;6.13;2.30;;;5.00;99.90;;;;;;4935857;29;20194;-59
2023/12/20 06:19:22;;;;;;;8.00;2.77;;;5.00;99.90;;;;;;4935358;29;20843;-56
2023/12/20 06:21:48;;;;;;;7.67;2.17;;;5.00;99.90;;;;;;4935950;29;20414;-57
2023/12/20 06:24:14;;;;;;;7.83;2.00;;;5.00;99.90;;;;;;4935914;29;20187;-57
2023/12/20 06:26:39;;;;;;;4.37;2.20;;;4.90;99.90;;;;;;4935813;29;20179;-58
2023/12/20 06:29:05;;;;;;;7.07;2.63;;;4.90;99.90;;;;;;4934961;29;20190;-57
2023/12/20 06:31:32;;;;;;;9.57;2.30;;;5.00;99.90;;;;;;4935049;29;20189;-57
2023/12/20 06:33:59;;;;;;;9.30;2.77;;;4.90;99.90;;;;;;4935776;29;20278;-56
2023/12/20 06:36:25;;;;;;;7.63;3.50;;;4.90;99.90;;;;;;4935601;29;20206;-58
2023/12/20 06:38:51;;;;;;;6.07;2.93;;;4.90;99.90;;;;;;4934996;29;20735;-58
2023/12/20 06:41:17;;;;;;;11.93;2.80;;;5.00;99.90;;;;;;4935224;29;20203;-59
2023/12/20 06:43:42;;;;;;;10.50;3.33;;;5.00;99.90;;;;;;4935604;29;20214;-58
2023/12/20 06:46:08;;;;;;;6.83;3.20;;;5.00;99.90;;;;;;4935427;29;20187;-53
2023/12/20 06:48:34;;;;;;;8.73;3.57;;;5.00;99.90;;;;;;4935085;29;20528;-59
2023/12/20 06:51:02;;;;;;;13.03;4.10;;;5.00;99.90;;;;;;4935402;29;20561;-59
2023/12/20 06:53:27;;;;;;;25.37;4.60;;;5.10;99.90;;;;;;4935103;29;20218;-59
2023/12/20 06:55:53;;;;;;;19.40;5.00;;;5.00;99.90;;;;;;4935313;29;20703;-59
2023/12/20 06:58:18;;;;;;;20.60;4.60;;;5.00;99.90;;;;;;4935119;29;20211;-57
2023/12/20 07:00:44;;;;;;;15.60;4.70;;;5.10;99.90;;;;;;4934308;29;20234;-57
2023/12/20 07:03:10;;;;;;;13.70;4.53;;;5.10;99.90;;;;;;4935119;29;20231;-59
2023/12/20 07:05:35;;;;;;;15.63;4.57;;;5.10;99.90;;;;;;4935401;29;20210;-57
2023/12/20 07:08:01;;;;;;;23.80;4.90;;;5.10;99.90;;;;;;4934996;29;20689;-55
2023/12/20 07:10:26;;;;;;;16.87;5.43;;;5.10;99.90;;;;;;4934221;29;20245;-59
2023/12/20 07:12:54;;;;;;;22.90;5.47;;;5.10;99.90;;;;;;4935035;29;20191;-59
2023/12/20 07:15:21;;;;;;;19.43;5.37;;;5.10;99.90;;;;;;4934811;29;20274;-59
2023/12/20 07:17:46;;;;;;;26.67;5.40;;;5.20;99.90;;;;;;4934904;29;20179;-58
2023/12/20 07:20:12;;;;;;;24.30;5.43;;;5.20;99.90;;;;;;4934086;29;20214;-58
2023/12/20 07:22:38;;;;;;;19.90;5.00;;;5.10;99.90;;;;;;4934369;29;20203;-58
2023/12/20 07:25:03;;;;;;;29.27;5.03;;;5.00;99.90;;;;;;4935170;29;20183;-56
2023/12/20 07:27:29;;;;;;;12.53;4.57;;;5.10;99.90;;;;;;4934662;29;20656;-59
2023/12/20 07:29:55;;;;;;;20.23;5.17;;;5.10;99.90;;;;;;4934123;29;20214;-59
2023/12/20 07:32:20;;;;;;;20.57;4.73;;;5.10;99.90;;;;;;4934653;29;20198;-58
2023/12/20 07:34:46;;;;;;;16.27;4.97;;;5.20;99.90;;;;;;4934812;29;20197;-59
2023/12/20 07:37:11;;;;;;;14.20;4.67;;;5.20;99.90;;;;;;4934513;29;20213;-59
2023/12/20 07:39:40;;;;;;;30.13;10.07;;;5.20;99.90;;;;;;4933941;29;20266;-58
2023/12/20 07:42:07;;;;;;;28.63;7.70;;;5.20;99.90;;;;;;4934465;29;20207;-59
2023/12/20 07:44:32;;;;;;;16.53;5.20;;;5.20;99.90;;;;;;4934478;29;20624;-59
2023/12/20 07:46:58;;;;;;;22.57;4.53;;;5.30;99.90;;;;;;4934285;29;20195;-57
2023/12/20 07:49:24;;;;;;;16.17;5.53;;;5.20;99.90;;;;;;4933618;29;20310;-59
2023/12/20 07:51:49;;;;;;;19.87;5.07;;;5.30;99.90;;;;;;4934132;29;20257;-54
2023/12/20 07:54:15;;;;;;;16.63;4.77;;;5.30;99.90;;;;;;4934191;29;20187;-59
2023/12/20 07:56:41;;;;;;;20.97;5.53;;;5.30;99.90;;;;;;4934485;29;20502;-58
2023/12/20 07:59:07;;;;;;;10.07;4.00;;;5.20;99.90;;;;;;4933552;29;20238;-58
2023/12/20 08:01:33;;;;;;;13.40;4.73;;;5.30;99.90;;;;;;4941712;29;20587;-57
2023/12/20 08:03:58;;;;;;;23.70;4.93;;;5.20;99.90;;;;;;4933347;29;20207;-58
2023/12/20 08:06:24;;;;;;;19.03;5.23;;;5.30;99.90;;;;;;4933292;29;20175;-59
2023/12/20 08:08:49;;;;;;;16.27;4.73;;;5.20;99.90;;;;;;4933136;29;20814;-58
2023/12/20 08:11:15;;;;;;;21.30;5.30;;;5.30;99.90;;;;;;4933085;29;20743;-58
2023/12/20 08:13:41;;;;;;;19.60;5.27;;;5.30;99.90;;;;;;4933478;29;20187;-58
2023/12/20 08:16:06;;;;;;;11.13;4.70;;;5.30;99.90;;;;;;4933153;29;20215;-56
2023/12/20 08:18:32;;;;;;;21.40;5.17;;;5.30;99.90;;;;;;4932798;29;20203;-52
2023/12/20 08:20:57;;;;;;;17.43;4.70;;;5.30;99.90;;;;;;4932824;29;20211;-54
2023/12/20 08:23:23;;;;;;;15.67;4.93;;;5.30;99.90;;;;;;4941125;29;20699;-55
2023/12/20 08:25:49;;;;;;;14.93;5.50;;;5.30;99.90;;;;;;4933524;29;20602;-55
2023/12/20 08:28:15;;;;;;;24.90;6.13;;;5.40;99.90;;;;;;4932758;29;20189;-54
2023/12/20 08:30:40;;;;;;;18.60;6.00;;;5.40;99.90;;;;;;4932036;29;20221;-54
2023/12/20 08:33:11;;;;;;;24.50;6.07;;;5.40;99.90;;;;;;4932895;29;20571;-55
2023/12/20 08:35:36;;;;;;;24.90;7.00;;;5.40;99.90;;;;;;4932332;29;20203;-53
2023/12/20 08:38:03;;;;;;;19.90;5.53;;;5.40;99.90;;;;;;4932802;29;20191;-54
2023/12/20 08:40:29;;;;;;;31.77;7.70;;;5.40;99.90;;;;;;4932184;29;20294;-54
2023/12/20 08:42:55;;;;;;;26.33;6.00;;;5.40;99.90;;;;;;4933015;29;20322;-57
2023/12/20 08:45:20;;;;;;;28.63;4.83;;;5.40;99.90;;;;;;4933246;29;20189;-53
2023/12/20 08:47:46;;;;;;;16.70;5.20;;;5.40;99.90;;;;;;4933216;29;20553;-52
2023/12/20 08:50:12;;;;;;;24.53;5.23;;;5.40;99.90;;;;;;4931983;29;20270;-54
2023/12/20 08:52:38;;;;;;;18.37;4.57;;;5.40;99.90;;;;;;4932993;29;20183;-55
2023/12/20 08:55:04;;;;;;;17.63;4.40;;;5.40;99.90;;;;;;4932938;29;20203;-56
2023/12/20 08:57:31;;;;;;;18.03;4.57;;;5.50;99.90;;;;;;4932875;29;20194;-55
2023/12/20 08:59:57;;;;;;;15.87;4.73;;;5.50;99.90;;;;;;4931925;29;20247;-52
2023/12/20 09:02:23;;;;;;;20.13;4.20;;;5.50;99.90;;;;;;4932529;29;20241;-55
2023/12/20 09:04:48;;;;;;;15.00;4.20;;;5.50;99.90;;;;;;4932489;29;20190;-54
2023/12/20 09:07:27;;;;;;;20.73;4.23;;;5.50;99.90;;;;;;4932929;29;20285;-54
2023/12/20 09:09:53;;;;;;;19.47;4.80;;;5.50;99.90;;;;;;4931990;29;20290;-52
2023/12/20 09:12:19;;;;;;;15.00;4.47;;;5.60;99.90;;;;;;4932466;29;20326;-56
2023/12/20 09:14:50;;;;;;;14.53;3.60;;;5.60;99.90;;;;;;4932830;29;20218;-53
2023/12/20 09:17:16;;;;;;;11.80;4.37;;;5.60;99.90;;;;;;4932402;29;20194;-55
2023/12/20 09:19:45;;;;;;;14.70;4.40;;;5.60;99.90;;;;;;4931968;29;20270;-57
2023/12/20 09:22:12;;;;;;;15.47;3.93;;;5.60;99.90;;;;;;4932576;29;20271;-54
2023/12/20 09:24:38;;;;;;;24.40;3.93;;;5.60;99.90;;;;;;4932631;29;20183;-56
2023/12/20 09:27:05;;;;;;;16.50;4.40;;;5.50;99.90;;;;;;4932727;29;20194;-54
2023/12/20 09:29:31;;;;;;;17.80;4.23;;;5.60;99.90;;;;;;4931605;29;20211;-54
2023/12/20 09:31:57;;;;;;;15.83;3.57;;;5.60;99.90;;;;;;4932262;29;20187;-52
2023/12/20 09:34:23;;;;;;;16.20;3.57;;;5.60;99.90;;;;;;4932568;29;20183;-55
2023/12/20 09:36:48;;;;;;;15.20;4.17;;;5.60;99.90;;;;;;4932540;29;20187;-58
2023/12/20 09:39:14;;;;;;;11.57;3.70;;;5.60;99.90;;;;;;4931689;29;20270;-55
2023/12/20 09:41:46;;;;;;;18.97;3.33;;;5.60;99.90;;;;;;4932453;29;20179;-58
2023/12/20 09:44:18;;;;;;;10.53;3.20;;;5.60;99.90;;;;;;4932206;29;20186;-53
2023/12/20 09:46:45;;;;;;;13.60;3.47;;;5.60;99.90;;;;;;4935178;29;20191;-53
2023/12/20 09:49:12;;;;;;;10.30;3.67;;;5.60;99.90;;;;;;4935757;29;20190;-52
2023/12/20 09:51:39;;;;;;;17.10;4.43;;;5.70;99.90;;;;;;4935982;29;20688;-53
2023/12/20 09:54:05;;;;;;;15.63;5.63;;;5.70;99.90;;;;;;4935932;29;20193;-54
2023/12/20 09:56:30;;;;;;;22.60;4.90;;;5.70;99.90;;;;;;4935812;29;20195;-57
2023/12/20 09:58:57;;;;;;;21.67;4.40;;;5.60;99.90;;;;;;4935266;29;20187;-53
2023/12/20 10:01:23;;;;;;;21.10;5.33;;;5.70;99.90;;;;;;4935496;29;20231;-54
2023/12/20 10:03:53;;;;;;;16.97;4.50;;;5.70;99.90;;;;;;4935118;29;20684;-55
2023/12/20 10:06:19;;;;;;;22.03;5.27;;;5.70;99.90;;;;;;4935853;29;20191;-57
2023/12/20 10:08:44;;;;;;;15.20;4.43;;;5.70;99.90;;;;;;4935224;29;20180;-52
2023/12/20 10:11:10;;;;;;;18.07;3.93;;;5.80;99.90;;;;;;4935297;29;20563;-55
2023/12/20 10:13:40;;;;;;;17.00;3.80;;;5.70;99.90;;;;;;4935575;29;20194;-55
2023/12/20 10:16:07;;;;;;;22.77;3.97;;;5.70;99.90;;;;;;4934880;29;20191;-54
2023/12/20 10:18:33;;;;;;;12.40;3.87;;;5.60;99.90;;;;;;4927080;29;20202;-57
2023/12/20 10:21:00;;;;;;;15.67;4.60;;;5.70;99.90;;;;;;4942349;29;20560;-58
2023/12/20 10:23:25;;;;;;;20.30;5.13;;;5.70;99.90;;;;;;4936178;28;20202;-55
2023/12/20 10:25:58;;;;;;;12.53;4.03;;;5.80;99.90;;;;;;4935620;29;20206;-55
2023/12/20 10:28:27;;;;;;;13.73;3.93;;;5.80;99.90;;;;;;4934863;29;20323;-54
2023/12/20 10:30:56;;;;;;;14.67;3.87;;;5.70;99.90;;;;;;4934918;29;20210;-55
2023/12/20 10:33:26;;;;;;;11.57;3.57;;;5.70;99.90;;;;;;4935065;29;20191;-52
2023/12/20 10:35:52;;;;;;;19.63;3.90;;;5.70;99.90;;;;;;4935279;29;20195;-50
2023/12/20 10:38:18;;;;;;;18.43;4.77;;;5.70;99.90;;;;;;4935060;29;20678;-53
2023/12/20 10:40:45;;;;;;;15.53;3.80;;;5.70;99.90;;;;;;4934403;29;20207;-54
2023/12/20 10:43:11;;;;;;;11.83;3.83;;;5.70;99.90;;;;;;4934853;29;20207;-51
2023/12/20 10:45:37;;;;;;;19.87;3.20;;;5.80;99.90;;;;;;4934790;29;20175;-55
2023/12/20 10:48:03;;;;;;;18.13;4.37;;;5.70;99.90;;;;;;4935065;29;20567;-55
2023/12/20 10:50:30;;;;;;;11.47;3.63;;;5.80;99.90;;;;;;4934179;29;20214;-52
2023/12/20 10:52:56;;;;;;;15.23;3.63;;;5.70;99.90;;;;;;4942803;29;20661;-53
2023/12/20 10:55:23;;;;;;;19.30;3.83;;;5.70;99.90;;;;;;4934717;29;20191;-55
2023/12/20 10:57:59;;;;;;;17.27;4.13;;;5.70;99.90;;;;;;4933898;29;20688;-54
2023/12/20 11:00:25;;;;;;;14.90;3.70;;;5.80;99.90;;;;;;4933860;29;20313;-52
2023/12/20 11:02:51;;;;;;;21.83;3.87;;;5.80;99.90;;;;;;4934751;29;20318;-55
2023/12/20 11:05:33;;;;;;;18.23;3.50;;;5.80;99.90;;;;;;4934783;29;20187;-51
2023/12/20 11:08:32;;;;;;;11.73;3.30;;;5.80;99.90;;;;;;4934955;29;20182;-54
2023/12/20 11:11:10;;;;;;;10.47;3.00;;;5.80;99.90;;;;;;4864587;29;20226;-54
2023/12/20 11:14:09;;;;;;;12.03;3.03;;;5.80;99.90;;;;;;4927183;29;20183;-53
2023/12/20 11:16:38;;;;;;;18.20;3.70;;;5.80;99.90;;;;;;4918028;29;20199;-51
2023/12/20 11:19:07;;;;;;;14.67;3.57;;;5.80;99.90;;;;;;4934017;29;20214;-51
2023/12/20 11:21:33;;;;;;;12.40;3.10;;;5.80;99.90;;;;;;4934619;29;20198;-51
2023/12/20 11:24:00;;;;;;;6.27;3.00;;;5.80;99.90;;;;;;4934739;29;20207;-55
2023/12/20 11:26:29;;;;;;;13.47;3.23;;;5.80;99.90;;;;;;4934061;29;20210;-53
2023/12/20 11:29:34;;;;;;;15.97;3.30;;;5.80;99.90;;;;;;4933642;29;20198;-54
2023/12/20 11:32:01;;;;;;;13.00;3.70;;;5.90;99.90;;;;;;4931542;29;20190;-54
2023/12/20 11:34:28;;;;;;;24.47;3.73;;;5.80;99.90;;;;;;4933996;29;20199;-54
2023/12/20 11:36:59;;;;;;;14.47;3.23;;;5.80;99.90;;;;;;4933943;29;20199;-54
2023/12/20 11:39:26;;;;;;;14.20;3.00;;;5.80;99.90;;;;;;4933473;29;20594;-51
2023/12/20 11:41:53;;;;;;;15.33;3.53;;;5.80;99.90;;;;;;4934115;29;20171;-54
2023/12/20 11:44:20;;;;;;;13.63;3.40;;;5.80;99.90;;;;;;4933717;29;20630;-53
2023/12/20 11:46:46;;;;;;;18.83;4.10;;;5.80;99.90;;;;;;4934258;29;20193;-55
2023/12/20 11:49:11;;;;;;;7.37;2.60;;;5.90;99.90;;;;;;4933014;29;20266;-52
2023/12/20 11:51:42;;;;;;;14.33;3.37;;;5.90;99.90;;;;;;4933875;29;20223;-53
2023/12/20 11:54:08;;;;;;;14.67;3.03;;;5.90;99.90;;;;;;4933964;29;20179;-51
2023/12/20 11:56:36;;;;;;;12.70;3.47;;;5.90;99.90;;;;;;4925964;29;20202;-51
2023/12/20 11:59:01;;;;;;;13.60;3.20;;;5.90;99.90;;;;;;4932073;29;20267;-50
2023/12/20 12:01:27;;;;;;;11.00;3.80;;;5.90;99.90;;;;;;4933180;29;20776;-50
2023/12/20 12:04:08;;;;;;;10.40;3.37;;;5.90;99.90;;;;;;4933439;29;20209;-56
2023/12/20 12:06:34;;;;;;;15.03;2.60;;;5.90;99.90;;;;;;4933665;29;20190;-51
2023/12/20 12:08:59;;;;;;;21.73;7.13;;;5.90;99.90;;;;;;4932732;29;20624;-50
2023/12/20 12:11:25;;;;;;;15.50;4.03;;;5.90;99.90;;;;;;4933204;29;20204;-52
2023/12/20 12:13:51;;;;;;;11.20;4.00;;;5.90;99.90;;;;;;4932673;29;20203;-53
2023/12/20 12:16:20;;;;;;;13.10;4.17;;;5.90;99.90;;;;;;4933156;29;20250;-63
2023/12/20 12:18:46;;;;;;;13.07;3.03;;;5.80;99.90;;;;;;4933046;29;20187;-52
2023/12/20 12:21:20;;;;;;;10.07;2.87;;;6.00;99.90;;;;;;4933210;29;20669;-54
2023/12/20 12:23:46;;;;;;;9.03;3.13;;;5.90;99.90;;;;;;4933289;29;20222;-55
2023/12/20 12:26:11;;;;;;;12.70;3.60;;;5.80;99.90;;;;;;4933028;29;20238;-53
2023/12/20 12:28:40;;;;;;;18.13;3.20;;;5.80;99.90;;;;;;4932772;29;20226;-55
2023/12/20 12:31:06;;;;;;;9.03;3.23;;;5.80;99.90;;;;;;4932891;29;20207;-52
2023/12/20 12:33:32;;;;;;;9.23;4.47;;;5.90;99.90;;;;;;4933009;29;20273;-51
2023/12/20 12:35:57;;;;;;;8.90;3.40;;;5.90;99.90;;;;;;4933078;29;20179;-53
2023/12/20 12:38:24;;;;;;;17.40;3.17;;;5.90;99.90;;;;;;4932875;29;20194;-58
2023/12/20 12:40:50;;;;;;;9.97;3.07;;;5.90;99.90;;;;;;4932551;29;20218;-55
2023/12/20 12:43:16;;;;;;;16.00;3.97;;;5.90;99.90;;;;;;4932561;29;20692;-51
2023/12/20 12:45:41;;;;;;;10.57;3.40;;;5.90;99.90;;;;;;4932639;29;20207;-52